AFL527 UNOO-UNNT
Flight info
| Callsign | AFL527 |
|---|---|
| Flight time | N/A |
| Altitude | 31000 |
| Route | RUMOD A844 BIKMI R234 ABESA B944 GOLIM |
| Aircraft | A21N/M-SDE2E3FGHIRWXY/LB1 |
Departure
| Time | 2026-05-01 15:09 |
|---|---|
| Airport | Omsk Central Airport (UNOO) |
Arrival
| Time | N/A |
|---|---|
| Airport | Novosibirsk Tolmachevo Airport (UNNT) |
| Time | Latitude | Longitude | Altitude | Speed | Heading |
|---|---|---|---|---|---|
| 2026-05-01 14:45 | 54.96305 | 73.31943 | 291 ft | 0 kts | 136° |
| 2026-05-01 15:00 | 54.96303 | 73.31947 | 291 ft | 0 kts | 136° |
| 2026-05-01 15:00 | 54.96296 | 73.31960 | 291 ft | 2 kts | 131° |
| 2026-05-01 15:01 | 54.96285 | 73.31983 | 291 ft | 2 kts | 127° |
| 2026-05-01 15:01 | 54.96275 | 73.32020 | 291 ft | 3 kts | 106° |
| 2026-05-01 15:01 | 54.96277 | 73.32069 | 290 ft | 5 kts | 68° |
| 2026-05-01 15:01 | 54.96309 | 73.32134 | 288 ft | 8 kts | 37° |
| 2026-05-01 15:02 | 54.96366 | 73.32206 | 287 ft | 10 kts | 29° |
| 2026-05-01 15:02 | 54.96412 | 73.32232 | 287 ft | 10 kts | 358° |
| 2026-05-01 15:02 | 54.96445 | 73.32095 | 287 ft | 11 kts | 255° |
| 2026-05-01 15:02 | 54.96428 | 73.31969 | 289 ft | 9 kts | 257° |
| 2026-05-01 15:03 | 54.96415 | 73.31863 | 291 ft | 9 kts | 257° |
| 2026-05-01 15:03 | 54.96400 | 73.31750 | 291 ft | 10 kts | 257° |
| 2026-05-01 15:03 | 54.96384 | 73.31626 | 291 ft | 10 kts | 257° |
| 2026-05-01 15:03 | 54.96366 | 73.31493 | 291 ft | 11 kts | 257° |
| 2026-05-01 15:04 | 54.96347 | 73.31351 | 291 ft | 12 kts | 256° |
| 2026-05-01 15:04 | 54.96329 | 73.31213 | 293 ft | 10 kts | 256° |
| 2026-05-01 15:04 | 54.96312 | 73.31089 | 294 ft | 10 kts | 256° |
| 2026-05-01 15:04 | 54.96293 | 73.30950 | 294 ft | 12 kts | 256° |
| 2026-05-01 15:05 | 54.96271 | 73.30788 | 294 ft | 14 kts | 257° |
| 2026-05-01 15:05 | 54.96248 | 73.30611 | 295 ft | 15 kts | 255° |
| 2026-05-01 15:05 | 54.96224 | 73.30439 | 297 ft | 15 kts | 257° |
| 2026-05-01 15:05 | 54.96200 | 73.30253 | 297 ft | 16 kts | 257° |
| 2026-05-01 15:06 | 54.96174 | 73.30057 | 299 ft | 16 kts | 257° |
| 2026-05-01 15:06 | 54.96149 | 73.29867 | 300 ft | 16 kts | 256° |
| 2026-05-01 15:06 | 54.96122 | 73.29665 | 300 ft | 17 kts | 256° |
| 2026-05-01 15:06 | 54.96098 | 73.29481 | 301 ft | 9 kts | 257° |
| 2026-05-01 15:07 | 54.96084 | 73.29376 | 303 ft | 8 kts | 261° |
| 2026-05-01 15:07 | 54.96107 | 73.29292 | 304 ft | 8 kts | 324° |
| 2026-05-01 15:07 | 54.96171 | 73.29251 | 304 ft | 10 kts | 345° |
| 2026-05-01 15:07 | 54.96250 | 73.29217 | 304 ft | 12 kts | 346° |
| 2026-05-01 15:08 | 54.96343 | 73.29178 | 304 ft | 14 kts | 346° |
| 2026-05-01 15:08 | 54.96424 | 73.29151 | 304 ft | 10 kts | 355° |
| 2026-05-01 15:08 | 54.96477 | 73.29223 | 303 ft | 12 kts | 76° |
| 2026-05-01 15:08 | 54.96528 | 73.29617 | 301 ft | 73 kts | 78° |
| 2026-05-01 15:09 | 54.96703 | 73.30992 | 294 ft | 154 kts | 77° |
| 2026-05-01 15:09 | 54.96982 | 73.32979 | 829 ft | 175 kts | 76° |
| 2026-05-01 15:09 | 54.97257 | 73.35009 | 1705 ft | 179 kts | 77° |
| 2026-05-01 15:09 | 54.97530 | 73.37100 | 2549 ft | 183 kts | 77° |
| 2026-05-01 15:10 | 54.97818 | 73.39294 | 2996 ft | 194 kts | 77° |
| 2026-05-01 15:10 | 54.98417 | 73.44255 | 3668 ft | 228 kts | 85° |
| 2026-05-01 15:10 | 54.98461 | 73.47138 | 3986 ft | 248 kts | 91° |
| 2026-05-01 15:11 | 54.98425 | 73.50182 | 4626 ft | 254 kts | 91° |
| 2026-05-01 15:11 | 54.98367 | 73.56438 | 5811 ft | 271 kts | 90° |
| 2026-05-01 15:11 | 54.98358 | 73.59727 | 6500 ft | 275 kts | 90° |
| 2026-05-01 15:12 | 54.98355 | 73.63061 | 7231 ft | 277 kts | 90° |
| 2026-05-01 15:12 | 54.98359 | 73.69793 | 8626 ft | 283 kts | 90° |
| 2026-05-01 15:12 | 54.98362 | 73.73208 | 9305 ft | 286 kts | 90° |
| 2026-05-01 15:13 | 54.98371 | 73.83810 | 10820 ft | 312 kts | 90° |
| 2026-05-01 15:14 | 54.98375 | 73.91740 | 11439 ft | 341 kts | 90° |
| 2026-05-01 15:14 | 54.98375 | 73.95910 | 12002 ft | 346 kts | 90° |
| 2026-05-01 15:14 | 54.98371 | 74.04356 | 13229 ft | 351 kts | 90° |
| 2026-05-01 15:15 | 54.98365 | 74.10304 | 14028 ft | 355 kts | 90° |
| 2026-05-01 15:15 | 54.98352 | 74.17705 | 14981 ft | 361 kts | 90° |
| 2026-05-01 15:16 | 54.98339 | 74.23598 | 15704 ft | 365 kts | 90° |
| 2026-05-01 15:16 | 54.98316 | 74.31622 | 16640 ft | 370 kts | 90° |
| 2026-05-01 15:17 | 54.98283 | 74.40615 | 17631 ft | 376 kts | 90° |
| 2026-05-01 15:18 | 54.98222 | 74.54340 | 19032 ft | 385 kts | 90° |
| 2026-05-01 15:18 | 54.98197 | 74.58966 | 19477 ft | 388 kts | 90° |
| 2026-05-01 15:19 | 54.98112 | 74.73164 | 20798 ft | 395 kts | 91° |
| 2026-05-01 15:19 | 54.98044 | 74.82777 | 21640 ft | 401 kts | 91° |
| 2026-05-01 15:19 | 54.98007 | 74.87613 | 22045 ft | 403 kts | 91° |
| 2026-05-01 15:20 | 54.97927 | 74.97358 | 22827 ft | 408 kts | 91° |
| 2026-05-01 15:20 | 54.97884 | 75.02324 | 23212 ft | 411 kts | 91° |
| 2026-05-01 15:20 | 54.97838 | 75.07285 | 23587 ft | 413 kts | 91° |
| 2026-05-01 15:21 | 54.97790 | 75.12258 | 23953 ft | 416 kts | 91° |
| 2026-05-01 15:21 | 54.97739 | 75.17278 | 24314 ft | 418 kts | 91° |
| 2026-05-01 15:21 | 54.97686 | 75.22345 | 24668 ft | 421 kts | 91° |
| 2026-05-01 15:21 | 54.97631 | 75.27432 | 25020 ft | 423 kts | 91° |
| 2026-05-01 15:22 | 54.97513 | 75.37656 | 25688 ft | 427 kts | 91° |
| 2026-05-01 15:22 | 54.97450 | 75.42840 | 26015 ft | 430 kts | 91° |
| 2026-05-01 15:22 | 54.97385 | 75.48004 | 26326 ft | 432 kts | 91° |
| 2026-05-01 15:23 | 54.97318 | 75.53235 | 26635 ft | 434 kts | 91° |
| 2026-05-01 15:23 | 54.97247 | 75.58418 | 26974 ft | 435 kts | 91° |
| 2026-05-01 15:23 | 54.97172 | 75.63732 | 27301 ft | 437 kts | 91° |
| 2026-05-01 15:23 | 54.97098 | 75.68954 | 27591 ft | 439 kts | 92° |
| 2026-05-01 15:24 | 54.97020 | 75.74293 | 27870 ft | 441 kts | 92° |
| 2026-05-01 15:24 | 54.96940 | 75.79624 | 28156 ft | 443 kts | 92° |
| 2026-05-01 15:24 | 54.96857 | 75.84959 | 28526 ft | 443 kts | 92° |
| 2026-05-01 15:24 | 54.96771 | 75.90275 | 28916 ft | 441 kts | 92° |
| 2026-05-01 15:25 | 54.96684 | 75.95554 | 29277 ft | 441 kts | 92° |
| 2026-05-01 15:25 | 54.96592 | 76.00930 | 29587 ft | 442 kts | 92° |
| 2026-05-01 15:25 | 54.96501 | 76.06187 | 29856 ft | 443 kts | 92° |
| 2026-05-01 15:25 | 54.96406 | 76.11548 | 30127 ft | 445 kts | 92° |
| 2026-05-01 15:26 | 54.96308 | 76.16924 | 30405 ft | 446 kts | 92° |
| 2026-05-01 15:26 | 54.96208 | 76.22305 | 30680 ft | 447 kts | 92° |
| 2026-05-01 15:26 | 54.96106 | 76.27650 | 30932 ft | 448 kts | 92° |
| 2026-05-01 15:26 | 54.95999 | 76.33072 | 30984 ft | 449 kts | 92° |
| 2026-05-01 15:27 | 54.95779 | 76.43910 | 30997 ft | 449 kts | 92° |
| 2026-05-01 15:28 | 54.95433 | 76.60107 | 31000 ft | 449 kts | 92° |
| 2026-05-01 15:28 | 54.95192 | 76.70887 | 31000 ft | 449 kts | 93° |
| 2026-05-01 15:29 | 54.94809 | 76.87008 | 31000 ft | 450 kts | 92° |
| 2026-05-01 15:30 | 54.94267 | 77.08633 | 31000 ft | 450 kts | 92° |
| 2026-05-01 15:31 | 54.93378 | 77.41088 | 31000 ft | 449 kts | 92° |
| 2026-05-01 15:32 | 54.92931 | 77.62623 | 30997 ft | 441 kts | 88° |
| 2026-05-01 15:34 | 54.94890 | 77.93963 | 30999 ft | 448 kts | 83° |